CFG2PK EDDF-LEBL
Flight info
| Callsign | CFG2PK |
|---|---|
| Flight time | N/A |
| Altitude | 35000 |
| Route | ANEKI2L/18 ANEKI Y163 HERBI Y164 MOPAN DCT LUTIX DCT BENOT DCT NEMOS DCT GEVEA/N0419F270 DCT INCUS DCT BALSI/N0445F350 DCT RETNO DCT TUPOX DCT MTG DCT DIVKO/N0448F370 DCT NILDU DCT BISBA |
| Aircraft | A321/M-SDE3FGHIRWY/LB1 |
Departure
| Time | 2026-05-01 14:33 |
|---|---|
| Airport | Frankfurt Main Airport (EDDF) |
Arrival
| Time | N/A |
|---|---|
| Airport | Josep Tarradellas Barcelona-El Prat Airport (LEBL) |
| Time | Latitude | Longitude | Altitude | Speed | Heading |
|---|---|---|---|---|---|
| 2026-05-01 14:01 | 50.04062 | 8.54491 | 352 ft | 0 kts | 249° |
| 2026-05-01 14:23 | 50.04070 | 8.54522 | 359 ft | 4 kts | 249° |
| 2026-05-01 14:24 | 50.04078 | 8.54558 | 354 ft | 4 kts | 247° |
| 2026-05-01 14:24 | 50.04085 | 8.54578 | 354 ft | 4 kts | 203° |
| 2026-05-01 14:24 | 50.04095 | 8.54585 | 352 ft | 3 kts | 235° |
| 2026-05-01 14:24 | 50.04099 | 8.54606 | 356 ft | 4 kts | 287° |
| 2026-05-01 14:25 | 50.04088 | 8.54635 | 356 ft | 4 kts | 343° |
| 2026-05-01 14:25 | 50.04064 | 8.54641 | 355 ft | 3 kts | 341° |
| 2026-05-01 14:25 | 50.04057 | 8.54644 | 353 ft | 0 kts | 339° |
| 2026-05-01 14:27 | 50.04064 | 8.54636 | 355 ft | 6 kts | 318° |
| 2026-05-01 14:28 | 50.04069 | 8.54635 | 356 ft | 6 kts | 154° |
| 2026-05-01 14:28 | 50.04065 | 8.54638 | 355 ft | 0 kts | 154° |
| 2026-05-01 14:29 | 50.04061 | 8.54641 | 354 ft | 3 kts | 154° |
| 2026-05-01 14:29 | 50.03986 | 8.54686 | 347 ft | 14 kts | 169° |
| 2026-05-01 14:30 | 50.03884 | 8.54451 | 352 ft | 7 kts | 250° |
| 2026-05-01 14:30 | 50.03861 | 8.54375 | 353 ft | 11 kts | 238° |
| 2026-05-01 14:30 | 50.03814 | 8.54268 | 351 ft | 13 kts | 237° |
| 2026-05-01 14:31 | 50.03733 | 8.53958 | 354 ft | 15 kts | 249° |
| 2026-05-01 14:31 | 50.03696 | 8.53807 | 348 ft | 17 kts | 249° |
| 2026-05-01 14:31 | 50.03650 | 8.53607 | 353 ft | 20 kts | 249° |
| 2026-05-01 14:31 | 50.03601 | 8.53408 | 354 ft | 19 kts | 249° |
| 2026-05-01 14:32 | 50.03555 | 8.53214 | 348 ft | 21 kts | 249° |
| 2026-05-01 14:32 | 50.03478 | 8.52905 | 351 ft | 32 kts | 248° |
| 2026-05-01 14:32 | 50.03413 | 8.52653 | 351 ft | 19 kts | 248° |
| 2026-05-01 14:32 | 50.03317 | 8.52595 | 348 ft | 26 kts | 180° |
| 2026-05-01 14:33 | 50.02885 | 8.52605 | 346 ft | 94 kts | 179° |
| 2026-05-01 14:33 | 50.02065 | 8.52614 | 350 ft | 143 kts | 180° |
| 2026-05-01 14:33 | 50.00966 | 8.52632 | 575 ft | 162 kts | 174° |
| 2026-05-01 14:33 | 49.99847 | 8.52643 | 1242 ft | 161 kts | 173° |
| 2026-05-01 14:34 | 49.98710 | 8.52688 | 1833 ft | 167 kts | 173° |
| 2026-05-01 14:34 | 49.97481 | 8.52776 | 2022 ft | 187 kts | 173° |
| 2026-05-01 14:34 | 49.96116 | 8.52884 | 2177 ft | 206 kts | 175° |
| 2026-05-01 14:34 | 49.94628 | 8.53000 | 2350 ft | 221 kts | 174° |
| 2026-05-01 14:35 | 49.93076 | 8.53117 | 2907 ft | 224 kts | 175° |
| 2026-05-01 14:35 | 49.91507 | 8.53233 | 3676 ft | 225 kts | 174° |
| 2026-05-01 14:35 | 49.89945 | 8.53344 | 4438 ft | 225 kts | 175° |
| 2026-05-01 14:35 | 49.88381 | 8.53451 | 5178 ft | 224 kts | 176° |
| 2026-05-01 14:36 | 49.86839 | 8.53557 | 5804 ft | 227 kts | 176° |
| 2026-05-01 14:36 | 49.85256 | 8.53665 | 6457 ft | 229 kts | 176° |
| 2026-05-01 14:36 | 49.83652 | 8.53775 | 7046 ft | 232 kts | 177° |
| 2026-05-01 14:36 | 49.82033 | 8.53886 | 7637 ft | 234 kts | 176° |
| 2026-05-01 14:37 | 49.80400 | 8.53998 | 8233 ft | 236 kts | 176° |
| 2026-05-01 14:37 | 49.78751 | 8.54109 | 8842 ft | 238 kts | 176° |
| 2026-05-01 14:37 | 49.77073 | 8.54021 | 9293 ft | 250 kts | 183° |
| 2026-05-01 14:37 | 49.75253 | 8.53784 | 9611 ft | 271 kts | 184° |
| 2026-05-01 14:38 | 49.73347 | 8.53528 | 10229 ft | 278 kts | 184° |
| 2026-05-01 14:38 | 49.71358 | 8.53264 | 10553 ft | 298 kts | 184° |
| 2026-05-01 14:38 | 49.69214 | 8.52977 | 10706 ft | 321 kts | 184° |
| 2026-05-01 14:38 | 49.66926 | 8.52670 | 11000 ft | 338 kts | 184° |
| 2026-05-01 14:39 | 49.64593 | 8.52357 | 11602 ft | 343 kts | 184° |
| 2026-05-01 14:39 | 49.62195 | 8.52038 | 12254 ft | 348 kts | 183° |
| 2026-05-01 14:39 | 49.59770 | 8.51718 | 12904 ft | 353 kts | 183° |
| 2026-05-01 14:39 | 49.57309 | 8.51396 | 13573 ft | 357 kts | 183° |
| 2026-05-01 14:40 | 49.54818 | 8.51069 | 14217 ft | 361 kts | 183° |
| 2026-05-01 14:40 | 49.52301 | 8.50737 | 14811 ft | 365 kts | 183° |
| 2026-05-01 14:40 | 49.49763 | 8.50405 | 15416 ft | 368 kts | 183° |
| 2026-05-01 14:40 | 49.47196 | 8.50072 | 16029 ft | 371 kts | 183° |
| 2026-05-01 14:41 | 49.44607 | 8.49734 | 16637 ft | 375 kts | 183° |
| 2026-05-01 14:41 | 49.41999 | 8.49392 | 17236 ft | 378 kts | 183° |
| 2026-05-01 14:41 | 49.39370 | 8.49047 | 17813 ft | 381 kts | 183° |
| 2026-05-01 14:41 | 49.36717 | 8.48701 | 18399 ft | 384 kts | 183° |
| 2026-05-01 14:42 | 49.34038 | 8.48354 | 18910 ft | 387 kts | 183° |
| 2026-05-01 14:42 | 49.31377 | 8.48008 | 19385 ft | 390 kts | 183° |
| 2026-05-01 14:42 | 49.28813 | 8.47671 | 19833 ft | 394 kts | 183° |
| 2026-05-01 14:42 | 49.26074 | 8.47313 | 20312 ft | 397 kts | 183° |
| 2026-05-01 14:43 | 49.23313 | 8.46954 | 20786 ft | 400 kts | 183° |
| 2026-05-01 14:43 | 49.20527 | 8.46594 | 21265 ft | 403 kts | 183° |
| 2026-05-01 14:43 | 49.17720 | 8.46230 | 21726 ft | 407 kts | 183° |
| 2026-05-01 14:43 | 49.14882 | 8.45861 | 22176 ft | 410 kts | 183° |
| 2026-05-01 14:44 | 49.12031 | 8.45491 | 22632 ft | 414 kts | 184° |
| 2026-05-01 14:44 | 49.06247 | 8.44658 | 23470 ft | 422 kts | 188° |
| 2026-05-01 14:44 | 49.03365 | 8.43705 | 23872 ft | 426 kts | 191° |
| 2026-05-01 14:45 | 49.00464 | 8.42685 | 24220 ft | 429 kts | 191° |
| 2026-05-01 14:45 | 48.94603 | 8.40651 | 24971 ft | 434 kts | 192° |
| 2026-05-01 14:45 | 48.91647 | 8.39628 | 25337 ft | 437 kts | 192° |
| 2026-05-01 14:46 | 48.88676 | 8.38600 | 25690 ft | 440 kts | 192° |
| 2026-05-01 14:46 | 48.82672 | 8.36524 | 26402 ft | 445 kts | 192° |
| 2026-05-01 14:46 | 48.79646 | 8.35478 | 26756 ft | 447 kts | 192° |
| 2026-05-01 14:47 | 48.76609 | 8.34416 | 27113 ft | 450 kts | 192° |
| 2026-05-01 14:47 | 48.73551 | 8.33313 | 27470 ft | 452 kts | 193° |
| 2026-05-01 14:47 | 48.70486 | 8.32186 | 27816 ft | 455 kts | 193° |
| 2026-05-01 14:48 | 48.64308 | 8.29896 | 28456 ft | 460 kts | 193° |
| 2026-05-01 14:48 | 48.61191 | 8.28753 | 28780 ft | 462 kts | 193° |
| 2026-05-01 14:48 | 48.54905 | 8.26465 | 29420 ft | 466 kts | 193° |
| 2026-05-01 14:49 | 48.48563 | 8.24173 | 30066 ft | 470 kts | 193° |
| 2026-05-01 14:49 | 48.42258 | 8.21877 | 30838 ft | 468 kts | 193° |
| 2026-05-01 14:50 | 48.38029 | 8.20328 | 31360 ft | 467 kts | 194° |
| 2026-05-01 14:50 | 48.29661 | 8.17281 | 32410 ft | 463 kts | 194° |
| 2026-05-01 14:51 | 48.26533 | 8.16137 | 32828 ft | 461 kts | 195° |
| 2026-05-01 14:51 | 48.20641 | 8.12508 | 33659 ft | 457 kts | 207° |
| 2026-05-01 14:52 | 48.14965 | 8.08282 | 34472 ft | 454 kts | 207° |
| 2026-05-01 14:52 | 48.12135 | 8.06186 | 34807 ft | 452 kts | 207° |
| 2026-05-01 14:52 | 48.06493 | 8.02023 | 35245 ft | 450 kts | 207° |
| 2026-05-01 14:53 | 48.03730 | 7.99993 | 35271 ft | 447 kts | 207° |
| 2026-05-01 14:53 | 47.98135 | 7.95894 | 35274 ft | 444 kts | 207° |
| 2026-05-01 14:54 | 47.93522 | 7.92516 | 35271 ft | 444 kts | 207° |
| 2026-05-01 14:54 | 47.87991 | 7.88472 | 35274 ft | 443 kts | 206° |
| 2026-05-01 14:55 | 47.81553 | 7.83784 | 35267 ft | 443 kts | 206° |
| 2026-05-01 14:55 | 47.76916 | 7.80422 | 35263 ft | 442 kts | 206° |
| 2026-05-01 14:56 | 47.71417 | 7.76431 | 35262 ft | 442 kts | 206° |
| 2026-05-01 14:56 | 47.65885 | 7.72420 | 35256 ft | 442 kts | 206° |
| 2026-05-01 14:57 | 47.60368 | 7.68420 | 35250 ft | 442 kts | 206° |
| 2026-05-01 14:57 | 47.52346 | 7.62642 | 35255 ft | 441 kts | 206° |
| 2026-05-01 14:58 | 47.46828 | 7.58684 | 35257 ft | 441 kts | 206° |
| 2026-05-01 14:58 | 47.41315 | 7.54739 | 35260 ft | 440 kts | 206° |
| 2026-05-01 14:59 | 47.35803 | 7.50797 | 35263 ft | 440 kts | 206° |
| 2026-05-01 14:59 | 47.30288 | 7.46859 | 35257 ft | 440 kts | 206° |
| 2026-05-01 15:00 | 47.22038 | 7.40981 | 35250 ft | 439 kts | 206° |
| 2026-05-01 15:01 | 47.16815 | 7.36498 | 35250 ft | 437 kts | 220° |
| 2026-05-01 15:01 | 47.12653 | 7.29960 | 35249 ft | 436 kts | 232° |
| 2026-05-01 15:02 | 47.08886 | 7.22996 | 35246 ft | 436 kts | 231° |
| 2026-05-01 15:02 | 47.05132 | 7.16092 | 35252 ft | 436 kts | 231° |
| 2026-05-01 15:03 | 47.01341 | 7.09157 | 35264 ft | 435 kts | 231° |
| 2026-05-01 15:03 | 46.97556 | 7.02247 | 35267 ft | 435 kts | 231° |
| 2026-05-01 15:04 | 46.93771 | 6.95345 | 35267 ft | 434 kts | 231° |
| 2026-05-01 15:04 | 46.89692 | 6.88860 | 35267 ft | 434 kts | 219° |
| 2026-05-01 15:05 | 46.85010 | 6.83302 | 35263 ft | 434 kts | 219° |
| 2026-05-01 15:05 | 46.80336 | 6.77734 | 35267 ft | 433 kts | 219° |
| 2026-05-01 15:06 | 46.75666 | 6.72177 | 35272 ft | 433 kts | 219° |
| 2026-05-01 15:06 | 46.70994 | 6.66625 | 35267 ft | 433 kts | 219° |
| 2026-05-01 15:07 | 46.66319 | 6.61088 | 35266 ft | 433 kts | 219° |
| 2026-05-01 15:07 | 46.61670 | 6.55596 | 35262 ft | 433 kts | 219° |
| 2026-05-01 15:08 | 46.56985 | 6.50092 | 35259 ft | 433 kts | 220° |
| 2026-05-01 15:08 | 46.52292 | 6.44590 | 35263 ft | 433 kts | 220° |
| 2026-05-01 15:09 | 46.47600 | 6.39095 | 35259 ft | 433 kts | 220° |
| 2026-05-01 15:09 | 46.42914 | 6.33602 | 35250 ft | 433 kts | 220° |
| 2026-05-01 15:10 | 46.38210 | 6.28116 | 35244 ft | 434 kts | 220° |
| 2026-05-01 15:10 | 46.31152 | 6.19913 | 35240 ft | 434 kts | 221° |
| 2026-05-01 15:11 | 46.23469 | 6.13132 | 35242 ft | 439 kts | 200° |
| 2026-05-01 15:12 | 46.17445 | 6.11450 | 35242 ft | 442 kts | 191° |
| 2026-05-01 15:12 | 46.08312 | 6.09434 | 35240 ft | 443 kts | 191° |
| 2026-05-01 15:14 | 45.93082 | 6.06057 | 35233 ft | 443 kts | 191° |
| 2026-05-01 15:14 | 45.83967 | 6.04050 | 35236 ft | 444 kts | 191° |
| 2026-05-01 15:15 | 45.71748 | 6.01343 | 35216 ft | 445 kts | 191° |
| 2026-05-01 15:16 | 45.59512 | 5.98662 | 35217 ft | 445 kts | 191° |
| 2026-05-01 15:18 | 45.44255 | 5.95177 | 35227 ft | 443 kts | 194° |
| 2026-05-01 15:19 | 45.32248 | 5.91252 | 35247 ft | 442 kts | 195° |
| 2026-05-01 15:19 | 45.23228 | 5.88395 | 35258 ft | 443 kts | 195° |
| 2026-05-01 15:20 | 45.14195 | 5.85631 | 35270 ft | 443 kts | 195° |
| 2026-05-01 15:21 | 45.08208 | 5.83779 | 35267 ft | 443 kts | 195° |
| 2026-05-01 15:21 | 45.02136 | 5.81906 | 35271 ft | 444 kts | 195° |
| 2026-05-01 15:22 | 44.93121 | 5.79127 | 35283 ft | 444 kts | 195° |
| 2026-05-01 15:22 | 44.87088 | 5.77273 | 35280 ft | 444 kts | 195° |
| 2026-05-01 15:23 | 44.81052 | 5.75429 | 35284 ft | 444 kts | 194° |
| 2026-05-01 15:23 | 44.75011 | 5.73580 | 35426 ft | 446 kts | 194° |
| 2026-05-01 15:24 | 44.71972 | 5.72650 | 35713 ft | 447 kts | 194° |
| 2026-05-01 15:24 | 44.68937 | 5.71722 | 36022 ft | 446 kts | 194° |
| 2026-05-01 15:24 | 44.65895 | 5.70795 | 36321 ft | 446 kts | 194° |
| 2026-05-01 15:24 | 44.62865 | 5.69873 | 36621 ft | 446 kts | 194° |
| 2026-05-01 15:25 | 44.59829 | 5.68950 | 36907 ft | 446 kts | 194° |
| 2026-05-01 15:25 | 44.56802 | 5.68032 | 37185 ft | 446 kts | 194° |
| 2026-05-01 15:25 | 44.50737 | 5.66199 | 37284 ft | 445 kts | 194° |
| 2026-05-01 15:26 | 44.44718 | 5.64388 | 37283 ft | 445 kts | 194° |
| 2026-05-01 15:26 | 44.38678 | 5.62538 | 37283 ft | 444 kts | 198° |
| 2026-05-01 15:27 | 44.32920 | 5.59551 | 37285 ft | 441 kts | 204° |
| 2026-05-01 15:28 | 44.24343 | 5.54849 | 37282 ft | 441 kts | 203° |
| 2026-05-01 15:28 | 44.18622 | 5.51740 | 37287 ft | 441 kts | 203° |
| 2026-05-01 15:29 | 44.10038 | 5.47081 | 37286 ft | 441 kts | 203° |
| 2026-05-01 15:30 | 43.98595 | 5.40846 | 37283 ft | 442 kts | 203° |
| 2026-05-01 15:31 | 43.81467 | 5.31601 | 37291 ft | 442 kts | 203° |
| 2026-05-01 15:32 | 43.70004 | 5.25423 | 37291 ft | 441 kts | 203° |
| 2026-05-01 15:34 | 43.52843 | 5.16253 | 37290 ft | 440 kts | 203° |